sensor_id;sensor_type;location;lat;lon;timestamp;P1;durP1;ratioP1;P2;durP2;ratioP2
24631;SDS011;59977;48.782;9.190;2022-11-03T00:00:30;18.67;;;5.95;;
24631;SDS011;59977;48.782;9.190;2022-11-03T00:02:56;15.00;;;5.15;;
24631;SDS011;59977;48.782;9.190;2022-11-03T00:05:22;17.77;;;5.38;;
24631;SDS011;59977;48.782;9.190;2022-11-03T00:08:06;18.35;;;5.85;;
24631;SDS011;59977;48.782;9.190;2022-11-03T00:10:31;15.30;;;4.45;;
24631;SDS011;59977;48.782;9.190;2022-11-03T00:12:57;17.45;;;5.15;;
24631;SDS011;59977;48.782;9.190;2022-11-03T00:15:22;14.23;;;5.35;;
24631;SDS011;59977;48.782;9.190;2022-11-03T00:17:48;23.13;;;5.10;;
24631;SDS011;59977;48.782;9.190;2022-11-03T21:01:56;17.33;;;5.93;;
24631;SDS011;59977;48.782;9.190;2022-11-03T21:04:22;15.57;;;5.55;;
24631;SDS011;59977;48.782;9.190;2022-11-03T21:06:49;16.23;;;6.10;;
24631;SDS011;59977;48.782;9.190;2022-11-03T21:09:16;20.92;;;5.90;;
24631;SDS011;59977;48.782;9.190;2022-11-03T21:11:42;12.52;;;5.32;;
24631;SDS011;59977;48.782;9.190;2022-11-03T21:14:23;33.45;;;7.30;;
24631;SDS011;59977;48.782;9.190;2022-11-03T21:16:50;22.80;;;7.27;;
24631;SDS011;59977;48.782;9.190;2022-11-03T21:19:34;18.52;;;5.63;;
24631;SDS011;59977;48.782;9.190;2022-11-03T21:22:19;19.38;;;5.07;;
24631;SDS011;59977;48.782;9.190;2022-11-03T21:24:45;17.65;;;4.72;;
24631;SDS011;59977;48.782;9.190;2022-11-03T21:27:12;19.05;;;6.30;;
24631;SDS011;59977;48.782;9.190;2022-11-03T21:29:39;20.17;;;5.72;;
24631;SDS011;59977;48.782;9.190;2022-11-03T21:32:05;10.63;;;5.43;;
24631;SDS011;59977;48.782;9.190;2022-11-03T21:34:34;11.52;;;5.53;;
24631;SDS011;59977;48.782;9.190;2022-11-03T21:36:59;11.32;;;5.25;;
24631;SDS011;59977;48.782;9.190;2022-11-03T21:39:26;8.25;;;5.28;;
24631;SDS011;59977;48.782;9.190;2022-11-03T21:41:53;13.35;;;5.50;;
24631;SDS011;59977;48.782;9.190;2022-11-03T21:44:37;12.05;;;5.25;;
24631;SDS011;59977;48.782;9.190;2022-11-03T21:47:03;11.63;;;5.75;;
24631;SDS011;59977;48.782;9.190;2022-11-03T21:49:29;11.15;;;5.45;;
24631;SDS011;59977;48.782;9.190;2022-11-03T21:52:10;8.88;;;5.07;;
24631;SDS011;59977;48.782;9.190;2022-11-03T21:54:37;11.68;;;5.70;;
24631;SDS011;59977;48.782;9.190;2022-11-03T21:57:04;11.25;;;5.70;;
24631;SDS011;59977;48.782;9.190;2022-11-03T21:59:31;13.43;;;6.60;;
24631;SDS011;59977;48.782;9.190;2022-11-03T22:01:57;14.07;;;6.60;;
24631;SDS011;59977;48.782;9.190;2022-11-03T22:04:23;15.35;;;7.28;;
24631;SDS011;59977;48.782;9.190;2022-11-03T22:06:49;14.95;;;7.15;;
24631;SDS011;59977;48.782;9.190;2022-11-03T22:09:15;14.25;;;6.38;;
24631;SDS011;59977;48.782;9.190;2022-11-03T22:11:41;10.77;;;6.13;;
24631;SDS011;59977;48.782;9.190;2022-11-03T22:14:07;10.30;;;5.65;;
24631;SDS011;59977;48.782;9.190;2022-11-03T22:16:35;11.32;;;4.65;;
24631;SDS011;59977;48.782;9.190;2022-11-03T22:22:00;9.50;;;5.43;;
24631;SDS011;59977;48.782;9.190;2022-11-03T22:24:45;9.13;;;5.00;;
24631;SDS011;59977;48.782;9.190;2022-11-03T22:27:30;7.43;;;4.97;;
24631;SDS011;59977;48.782;9.190;2022-11-03T22:29:56;13.88;;;4.93;;
24631;SDS011;59977;48.782;9.190;2022-11-03T22:32:41;9.05;;;4.93;;
24631;SDS011;59977;48.782;9.190;2022-11-03T22:35:07;10.55;;;5.32;;
24631;SDS011;59977;48.782;9.190;2022-11-03T22:37:59;10.55;;;5.47;;
24631;SDS011;59977;48.782;9.190;2022-11-03T22:40:29;10.57;;;5.50;;
24631;SDS011;59977;48.782;9.190;2022-11-03T22:43:13;12.27;;;5.60;;
24631;SDS011;59977;48.782;9.190;2022-11-03T22:45:58;11.98;;;5.05;;
24631;SDS011;59977;48.782;9.190;2022-11-03T22:48:24;10.45;;;5.15;;
24631;SDS011;59977;48.782;9.190;2022-11-03T22:50:54;10.77;;;3.70;;
24631;SDS011;59977;48.782;9.190;2022-11-03T22:53:21;8.45;;;3.50;;
24631;SDS011;59977;48.782;9.190;2022-11-03T22:56:05;13.15;;;3.75;;
24631;SDS011;59977;48.782;9.190;2022-11-03T22:58:31;8.75;;;4.15;;
24631;SDS011;59977;48.782;9.190;2022-11-03T23:01:00;12.85;;;4.45;;
24631;SDS011;59977;48.782;9.190;2022-11-03T23:03:29;10.75;;;4.50;;
24631;SDS011;59977;48.782;9.190;2022-11-03T23:06:00;7.50;;;4.15;;
24631;SDS011;59977;48.782;9.190;2022-11-03T23:08:28;10.02;;;4.30;;
24631;SDS011;59977;48.782;9.190;2022-11-03T23:10:55;9.10;;;3.72;;
24631;SDS011;59977;48.782;9.190;2022-11-03T23:13:20;9.65;;;4.38;;
24631;SDS011;59977;48.782;9.190;2022-11-03T23:15:46;5.38;;;2.85;;
24631;SDS011;59977;48.782;9.190;2022-11-03T23:18:11;5.32;;;2.20;;
24631;SDS011;59977;48.782;9.190;2022-11-03T23:21:06;5.78;;;2.80;;
24631;SDS011;59977;48.782;9.190;2022-11-03T23:23:32;6.78;;;2.60;;
24631;SDS011;59977;48.782;9.190;2022-11-03T23:26:18;2.50;;;2.03;;
24631;SDS011;59977;48.782;9.190;2022-11-03T23:28:43;4.53;;;2.20;;
24631;SDS011;59977;48.782;9.190;2022-11-03T23:31:10;3.72;;;1.92;;
24631;SDS011;59977;48.782;9.190;2022-11-03T23:33:36;3.30;;;1.40;;
24631;SDS011;59977;48.782;9.190;2022-11-03T23:36:06;2.40;;;1.75;;
24631;SDS011;59977;48.782;9.190;2022-11-03T23:38:34;1.70;;;1.48;;
24631;SDS011;59977;48.782;9.190;2022-11-03T23:41:03;8.88;;;1.67;;
24631;SDS011;59977;48.782;9.190;2022-11-03T23:43:30;5.93;;;2.00;;
24631;SDS011;59977;48.782;9.190;2022-11-03T23:45:56;3.67;;;1.90;;
24631;SDS011;59977;48.782;9.190;2022-11-03T23:48:41;7.60;;;2.75;;
24631;SDS011;59977;48.782;9.190;2022-11-03T23:53:39;2.95;;;2.00;;
24631;SDS011;59977;48.782;9.190;2022-11-03T23:56:05;4.47;;;2.58;;
24631;SDS011;59977;48.782;9.190;2022-11-03T23:58:49;5.40;;;2.10;;
